createdAt,value
2022-08-23T00:01:31.239Z,100813.36
2022-08-23T01:09:13.606Z,100835.77
2022-08-23T01:33:28.064Z,100843.01
2022-08-23T01:55:43.384Z,100825.46
2022-08-23T02:09:50.896Z,100836.23
2022-08-23T02:23:16.753Z,100843.72
2022-08-23T05:01:03.972Z,100882.64
2022-08-23T05:06:44.271Z,100874.16
2022-08-23T05:12:12.341Z,100870.48
2022-08-23T05:17:45.954Z,100873.63
2022-08-23T05:23:41.588Z,100881.00
2022-08-23T05:29:38.243Z,100887.89
2022-08-23T05:35:02.085Z,100890.61
2022-08-23T05:40:32.196Z,100879.02
2022-08-23T05:46:18.463Z,100876.84
2022-08-23T05:51:51.653Z,100869.33
2022-08-23T05:57:37.975Z,100870.70
2022-08-23T06:03:45.983Z,100870.42
2022-08-23T06:09:39.792Z,100865.88
2022-08-23T06:14:57.986Z,100858.68
2022-08-23T06:20:10.785Z,100852.88
2022-08-23T06:25:42.234Z,100862.59
2022-08-23T06:31:01.630Z,100877.46
2022-08-23T06:36:19.274Z,100886.35
2022-08-23T06:41:48.801Z,100888.64
2022-08-23T06:47:29.132Z,100894.59
2022-08-23T06:52:48.049Z,100897.98
2022-08-23T06:58:16.028Z,100908.86
2022-08-23T07:04:07.531Z,100915.53
2022-08-23T07:09:51.661Z,100923.11
2022-08-23T07:15:20.743Z,100922.45
2022-08-23T07:20:29.670Z,100923.85
2022-08-23T07:25:37.687Z,100927.65
2022-08-23T07:30:50.454Z,100926.02
2022-08-23T07:36:03.368Z,100928.41
2022-08-23T07:41:24.909Z,100923.20
2022-08-23T07:46:42.067Z,100920.95
2022-08-23T07:51:54.615Z,100924.78
2022-08-23T07:57:24.050Z,100926.48
2022-08-23T08:02:54.987Z,100921.02
2022-08-23T08:08:24.333Z,100925.05
2022-08-23T08:13:53.313Z,100916.22
2022-08-23T08:19:04.009Z,100918.77
2022-08-23T08:25:01.215Z,100926.58
2022-08-23T08:30:31.262Z,100932.21
2022-08-23T08:36:43.784Z,100936.65
2022-08-23T08:42:31.836Z,100941.36
2022-08-23T08:48:01.468Z,100936.97
2022-08-23T08:53:33.487Z,100940.40
2022-08-23T08:59:16.877Z,100944.29
2022-08-23T09:04:33.957Z,100952.54
2022-08-23T09:10:13.693Z,100951.94
2022-08-23T09:15:59.162Z,100955.66
2022-08-23T09:21:20.799Z,100955.23
2022-08-23T09:26:31.317Z,100951.82
2022-08-23T09:31:44.446Z,100948.20
2022-08-23T09:37:33.886Z,100946.33
2022-08-23T09:43:26.743Z,100956.16
2022-08-23T09:48:47.752Z,100956.11
2022-08-23T09:54:21.095Z,100965.23
2022-08-23T09:59:45.490Z,100964.80
2022-08-23T10:05:03.230Z,100962.36
2022-08-23T10:10:28.998Z,100961.24
2022-08-23T10:15:53.775Z,100963.23
2022-08-23T10:21:08.728Z,100960.80
2022-08-23T10:26:28.566Z,100962.28
2022-08-23T10:31:50.864Z,100961.29
2022-08-23T10:37:16.190Z,100956.77
2022-08-23T10:42:37.201Z,100957.05
2022-08-23T10:48:03.251Z,100959.08
2022-08-23T10:53:19.263Z,100961.27
2022-08-23T10:58:34.785Z,100966.27
2022-08-23T11:03:51.975Z,100970.39
2022-08-23T11:09:08.488Z,100968.56
2022-08-23T11:14:37.909Z,100967.68
2022-08-23T11:19:56.001Z,100965.95
2022-08-23T11:25:08.376Z,100963.59
2022-08-23T11:30:50.189Z,100957.41
2022-08-23T11:42:00.128Z,100963.02
2022-08-23T11:47:14.477Z,100964.92
2022-08-23T11:52:51.991Z,100959.06
2022-08-23T11:58:23.484Z,100958.02
2022-08-23T12:03:37.097Z,100954.40
2022-08-23T12:09:02.059Z,100954.92
2022-08-23T12:14:37.782Z,100955.48
2022-08-23T12:20:02.221Z,100955.65
2022-08-23T12:25:11.391Z,100955.95
2022-08-23T12:30:27.081Z,100961.00
2022-08-23T12:35:46.079Z,100960.23
2022-08-23T12:40:56.801Z,100954.59
2022-08-23T12:46:05.564Z,100953.36
2022-08-23T12:51:17.215Z,100951.16
2022-08-23T12:56:31.980Z,100945.42
2022-08-23T13:01:42.224Z,100952.09
2022-08-23T13:07:03.664Z,100957.77
2022-08-23T13:12:16.237Z,100943.99
2022-08-23T13:17:37.062Z,100938.14
2022-08-23T13:23:02.729Z,100935.36
2022-08-23T13:28:31.160Z,100933.10
2022-08-23T13:33:41.818Z,100932.33
2022-08-23T13:39:05.981Z,100927.90
2022-08-23T13:44:23.708Z,100930.52
2022-08-23T13:49:38.862Z,100937.58
2022-08-23T13:54:52.662Z,100940.13
2022-08-23T14:00:02.728Z,100949.50
2022-08-23T14:05:34.360Z,100951.73
2022-08-23T14:10:46.709Z,100945.35
2022-08-23T14:21:30.461Z,100925.89
2022-08-23T14:26:38.018Z,100913.86
2022-08-23T14:32:04.586Z,100900.61
2022-08-23T14:42:45.642Z,100890.02
2022-08-23T14:48:07.587Z,100896.60
2022-08-23T14:53:17.987Z,100893.05
2022-08-23T14:58:27.040Z,100889.56
2022-08-23T15:03:35.086Z,100893.98
2022-08-23T15:08:43.383Z,100898.65
2022-08-23T15:13:56.776Z,100899.44
2022-08-23T15:19:08.020Z,100906.54
2022-08-23T15:24:15.541Z,100916.33
2022-08-23T15:29:22.986Z,100919.48
2022-08-23T15:34:33.306Z,100931.91
2022-08-23T15:39:46.673Z,100947.14
2022-08-23T15:45:00.836Z,100958.04
2022-08-23T15:50:11.833Z,100964.80
2022-08-23T15:55:43.147Z,100968.88
2022-08-23T16:01:00.657Z,100967.05
2022-08-23T16:06:17.149Z,100969.13
2022-08-23T16:11:45.565Z,100966.71
2022-08-23T16:16:58.469Z,100960.89
2022-08-23T16:22:18.466Z,100953.30
2022-08-23T16:27:26.656Z,100958.55
2022-08-23T16:32:59.238Z,100959.31
2022-08-23T16:38:14.930Z,100964.21
2022-08-23T16:43:32.027Z,100967.11
2022-08-23T16:48:42.539Z,100971.58
2022-08-23T16:53:57.964Z,100981.80
2022-08-23T16:59:16.101Z,100982.08
2022-08-23T17:04:30.304Z,100983.19
2022-08-23T17:09:39.212Z,100984.39
2022-08-23T17:14:49.188Z,100992.33
2022-08-23T17:19:59.191Z,100996.38
2022-08-23T17:25:13.357Z,100995.20
2022-08-23T17:30:25.756Z,100997.59
2022-08-23T17:35:34.438Z,100988.52
2022-08-23T17:40:43.377Z,100986.12
2022-08-23T17:45:52.892Z,101003.03
2022-08-23T17:51:01.825Z,101007.20
2022-08-23T17:56:15.316Z,101009.71
2022-08-23T18:01:28.401Z,101000.13
2022-08-23T18:06:39.520Z,100997.33
2022-08-23T18:11:50.004Z,100994.40
2022-08-23T18:16:58.446Z,101012.09
2022-08-23T18:22:06.066Z,101024.83
2022-08-23T18:27:50.784Z,101037.42
2022-08-23T18:33:14.934Z,101051.27
2022-08-23T18:39:00.807Z,101047.38
2022-08-23T18:44:21.056Z,101067.38
2022-08-23T18:49:50.068Z,101072.09
2022-08-23T18:55:09.653Z,101084.05
2022-08-23T19:00:27.998Z,101093.14
2022-08-23T19:05:44.692Z,101098.03
2022-08-23T19:10:57.620Z,101103.36
2022-08-23T19:16:07.077Z,101102.48
2022-08-23T19:21:21.209Z,101098.95
2022-08-23T19:26:36.514Z,101097.02
2022-08-23T19:31:55.796Z,101103.14
2022-08-23T19:37:20.414Z,101108.39
2022-08-23T19:42:39.733Z,101115.63
2022-08-23T19:47:54.062Z,101121.93
2022-08-23T19:53:06.230Z,101126.21
2022-08-23T19:58:16.725Z,101134.77
2022-08-23T20:03:29.501Z,101136.66
2022-08-23T20:08:37.623Z,101139.80
2022-08-23T20:13:54.833Z,101165.64
2022-08-23T20:19:08.437Z,101183.07
2022-08-23T20:24:28.852Z,101179.82
2022-08-23T20:29:53.060Z,101175.86
2022-08-23T20:35:18.330Z,101168.89
2022-08-23T20:40:29.029Z,101162.45
2022-08-23T20:45:38.908Z,101153.98
2022-08-23T20:50:56.143Z,101151.55
2022-08-23T20:56:05.762Z,101139.52
2022-08-23T21:01:17.065Z,101135.07
2022-08-23T21:06:29.950Z,101138.80
2022-08-23T21:11:38.277Z,101148.66
2022-08-23T21:16:46.639Z,101138.31
2022-08-23T21:21:56.651Z,101136.61
2022-08-23T21:27:09.802Z,101146.78
2022-08-23T21:32:18.289Z,101138.55
2022-08-23T21:37:26.352Z,101135.27
2022-08-23T21:42:35.076Z,101129.29
2022-08-23T21:47:54.097Z,101126.33
2022-08-23T21:53:12.662Z,101138.19
2022-08-23T21:58:20.424Z,101151.55
2022-08-23T22:03:29.031Z,101158.89
2022-08-23T22:08:40.827Z,101167.66
2022-08-23T22:13:51.977Z,101173.27
2022-08-23T22:19:01.982Z,101182.48
2022-08-23T22:24:14.397Z,101180.61
2022-08-23T22:29:25.667Z,101176.16
2022-08-23T22:34:42.963Z,101168.02
2022-08-23T22:40:05.493Z,101162.88
2022-08-23T22:45:22.315Z,101159.55
2022-08-23T22:50:33.523Z,101161.48
2022-08-23T22:55:54.163Z,101155.66
2022-08-23T23:01:09.910Z,101147.14
2022-08-23T23:06:24.828Z,101139.77
2022-08-23T23:11:40.185Z,101139.64
2022-08-23T23:17:08.981Z,101134.16
2022-08-23T23:22:19.444Z,101134.57
2022-08-23T23:27:29.724Z,101141.13
2022-08-23T23:32:58.677Z,101144.15
2022-08-23T23:38:17.059Z,101149.17
2022-08-23T23:43:35.166Z,101150.27
2022-08-23T23:48:53.477Z,101147.98
2022-08-23T23:54:06.713Z,101147.13
2022-08-23T23:59:31.613Z,101147.96
